Time;durP1;ratioP1;P1;durP2;ratioP2;P2;SDS_P1;SDS_P2;PMS_P1;PMS_P2;Temp;Humidity;BMP_temperature;BMP_pressure;BME280_temperature;BME280_humidity;BME280_pressure;Samples;Min_cycle;Max_cycle;Signal;HPM_P1;HPM_P2
2022/12/06 00:00:23;;;;;;;;;;;1.70;99.90;;;;;;5055272;28;19920;-69
2022/12/06 00:02:48;;;;;;;;;;;1.70;99.90;;;;;;5055055;28;19913;-69
2022/12/06 00:05:14;;;;;;;;;;;1.70;99.90;;;;;;5056268;28;19939;-69
2022/12/06 00:07:40;;;;;;;;;;;1.70;99.90;;;;;;5056528;28;19929;-69
2022/12/06 00:10:05;;;;;;;;;;;1.70;99.90;;;;;;5056724;28;19963;-69
2022/12/06 00:12:31;;;;;;;;;;;1.70;99.90;;;;;;5054830;28;20093;-69
2022/12/06 00:14:56;;;;;;;;;;;1.70;99.90;;;;;;5056106;28;20368;-69
2022/12/06 00:17:23;;;;;;;;;;;1.70;99.90;;;;;;5054790;28;19913;-69
2022/12/06 00:19:48;;;;;;;;;;;1.70;99.90;;;;;;5055972;28;19920;-69
2022/12/06 00:22:14;;;;;;;;;;;1.70;99.90;;;;;;5054733;28;20288;-69
2022/12/06 00:24:40;;;;;;;;;;;1.70;99.90;;;;;;5055837;28;19921;-69
2022/12/06 00:27:05;;;;;;;;;;;1.70;99.90;;;;;;5056197;28;19913;-69
2022/12/06 00:29:31;;;;;;;;;;;1.70;99.90;;;;;;5055785;28;19917;-69
2022/12/06 00:31:56;;;;;;;;;;;1.70;99.90;;;;;;5054454;28;20335;-69
2022/12/06 00:34:22;;;;;;;;;;;1.70;99.90;;;;;;5056029;28;19909;-69
2022/12/06 00:36:48;;;;;;;;;;;1.70;99.90;;;;;;5055660;28;19920;-69
2022/12/06 00:39:14;;;;;;;;;;;1.70;99.90;;;;;;5055709;28;20466;-69
2022/12/06 00:41:40;;;;;;;;;;;1.70;99.90;;;;;;5055780;28;20291;-69
2022/12/06 00:44:05;;;;;;;;;;;1.60;99.90;;;;;;5055676;28;19909;-69
2022/12/06 00:46:32;;;;;;;;;;;1.60;99.90;;;;;;5057887;28;19913;-69
2022/12/06 00:48:58;;;;;;;;;;;1.50;99.90;;;;;;5057541;28;19913;-69
2022/12/06 00:51:24;;;;;;;;;;;1.60;99.90;;;;;;5058618;28;19913;-69
2022/12/06 00:53:50;;;;;;;;;;;1.60;99.90;;;;;;5055950;28;19940;-69
2022/12/06 00:56:16;;;;;;;;;;;1.60;99.90;;;;;;5055656;28;19974;-69
2022/12/06 00:58:43;;;;;;;;;;;1.60;99.90;;;;;;5055654;28;19963;-69
2022/12/06 01:01:13;;;;;;;;;;;1.60;99.90;;;;;;5055811;28;19913;-69
2022/12/06 01:03:39;;;;;;;;;;;1.60;99.90;;;;;;5055833;28;19913;-69
2022/12/06 01:06:05;;;;;;;;;;;1.70;99.90;;;;;;5055610;28;19909;-69
2022/12/06 01:08:32;;;;;;;;;;;1.70;99.90;;;;;;5056115;28;19908;-69
2022/12/06 01:10:57;;;;;;;;;;;1.70;99.90;;;;;;5060106;28;19931;-69
2022/12/06 01:13:24;;;;;;;;;;;1.60;99.90;;;;;;5060349;28;20377;-69
2022/12/06 01:15:49;;;;;;;;;;;1.60;99.90;;;;;;5061159;28;20000;-69
2022/12/06 01:18:15;;;;;;;;;;;1.60;99.90;;;;;;5061017;28;19956;-69
2022/12/06 01:20:41;;;;;;;;;;;1.60;99.90;;;;;;5060927;28;20391;-69
2022/12/06 01:23:06;;;;;;;;;;;1.50;99.90;;;;;;5060069;28;19956;-69
2022/12/06 01:25:32;;;;;;;;;;;1.50;99.90;;;;;;5060117;28;19913;-69
2022/12/06 01:27:58;;;;;;;;;;;1.50;99.90;;;;;;5060413;28;20380;-69
2022/12/06 01:30:24;;;;;;;;;;;1.50;99.90;;;;;;5060888;28;19952;-69
2022/12/06 01:32:49;;;;;;;;;;;1.50;99.90;;;;;;5060838;28;19916;-69
2022/12/06 01:35:15;;;;;;;;;;;1.50;99.90;;;;;;5058526;28;19920;-69
2022/12/06 01:37:40;;;;;;;;;;;1.50;99.90;;;;;;5058144;28;19917;-70
2022/12/06 01:40:06;;;;;;;;;;;1.50;99.90;;;;;;5056999;28;19913;-70
2022/12/06 01:42:32;;;;;;;;;;;1.50;99.90;;;;;;5056833;28;19923;-70
2022/12/06 01:44:58;;;;;;;;;;;1.60;99.90;;;;;;5056606;28;19999;-70
2022/12/06 01:47:26;;;;;;;;;;;1.60;99.90;;;;;;5056465;28;19921;-70
2022/12/06 01:49:55;;;;;;;;;;;1.60;99.90;;;;;;5055995;28;20396;-70
2022/12/06 01:52:23;;;;;;;;;;;1.60;99.90;;;;;;5056155;28;19913;-70
2022/12/06 01:54:48;;;;;;;;;;;1.60;99.90;;;;;;5056082;28;20357;-70
2022/12/06 01:57:15;;;;;;;;;;;1.70;99.90;;;;;;5052809;28;19924;-70
2022/12/06 01:59:40;;;;;;;;;;;1.70;99.90;;;;;;5054100;28;19920;-70
2022/12/06 02:02:06;;;;;;;;;;;1.70;99.90;;;;;;5053971;28;19909;-70
2022/12/06 02:04:32;;;;;;;;;;;1.70;99.90;;;;;;5054009;28;19923;-70
2022/12/06 02:06:58;;;;;;;;;;;1.70;99.90;;;;;;5054305;28;20254;-70
2022/12/06 02:09:25;;;;;;;;;;;1.70;99.90;;;;;;5053933;28;19908;-70
2022/12/06 02:11:51;;;;;;;;;;;1.70;99.90;;;;;;5054099;28;19999;-70
2022/12/06 02:14:18;;;;;;;;;;;1.70;99.90;;;;;;5054222;28;19951;-70
2022/12/06 02:16:44;;;;;;;;;;;1.70;99.90;;;;;;5053908;28;19913;-70
2022/12/06 02:19:15;;;;;;;;;;;1.70;99.90;;;;;;5053783;28;20328;-70
2022/12/06 02:21:41;;;;;;;;;;;1.70;99.90;;;;;;5052446;28;20285;-70
2022/12/06 02:24:06;;;;;;;;;;;1.70;99.90;;;;;;5053651;28;20015;-70
2022/12/06 02:26:38;;;;;;;;;;;1.70;99.90;;;;;;5053160;28;19955;-70
2022/12/06 02:29:03;;;;;;;;;;;1.70;99.90;;;;;;5053752;28;19909;-70
2022/12/06 02:31:47;;;;;;;;;;;1.70;99.90;;;;;;5053622;28;19909;-70
2022/12/06 02:34:17;;;;;;;;;;;1.70;99.90;;;;;;5053748;28;20279;-70
2022/12/06 02:36:50;;;;;;;;;;;1.70;99.90;;;;;;5053643;28;19909;-70
2022/12/06 02:39:37;;;;;;;;;;;1.70;99.90;;;;;;5054243;28;20257;-70
2022/12/06 02:42:05;;;;;;;;;;;1.60;99.90;;;;;;5052482;28;19909;-70
2022/12/06 02:44:39;;;;;;;;;;;1.60;99.90;;;;;;5053627;28;19909;-70
2022/12/06 02:47:06;;;;;;;;;;;1.60;99.90;;;;;;5053551;28;19909;-70
2022/12/06 02:49:33;;;;;;;;;;;1.50;99.90;;;;;;5053966;28;19912;-70
2022/12/06 02:51:59;;;;;;;;;;;1.60;99.90;;;;;;5053547;28;19909;-70
2022/12/06 02:54:26;;;;;;;;;;;1.50;99.90;;;;;;5053485;28;19912;-70
2022/12/06 02:56:51;;;;;;;;;;;1.50;99.90;;;;;;5053381;28;19917;-70
2022/12/06 02:59:17;;;;;;;;;;;1.50;99.90;;;;;;5053739;28;20361;-70
2022/12/06 03:01:54;;;;;;;;;;;1.50;99.90;;;;;;5053362;28;19959;-70
2022/12/06 03:04:32;;;;;;;;;;;1.60;99.90;;;;;;5053319;28;19913;-70
2022/12/06 03:07:03;;;;;;;;;;;1.50;99.90;;;;;;5053649;28;19909;-70
2022/12/06 03:09:48;;;;;;;;;;;1.50;99.90;;;;;;5053813;28;19909;-70
2022/12/06 03:12:23;;;;;;;;;;;1.50;99.90;;;;;;5053792;28;19943;-71
2022/12/06 03:14:54;;;;;;;;;;;1.50;99.90;;;;;;5053543;28;20328;-70
2022/12/06 03:17:26;;;;;;;;;;;1.60;99.90;;;;;;5051864;28;19935;-70
2022/12/06 03:19:57;;;;;;;;;;;1.50;99.90;;;;;;5053126;28;19913;-70
2022/12/06 03:22:26;;;;;;;;;;;1.50;99.90;;;;;;5053184;28;20266;-70
2022/12/06 03:24:52;;;;;;;;;;;1.50;99.90;;;;;;5051793;28;19928;-70
2022/12/06 03:27:18;;;;;;;;;;;1.50;99.90;;;;;;5053408;28;20360;-70
2022/12/06 03:29:46;;;;;;;;;;;1.50;99.90;;;;;;5053082;28;19913;-70
2022/12/06 03:32:14;;;;;;;;;;;1.50;99.90;;;;;;5052978;28;19995;-71
2022/12/06 03:34:42;;;;;;;;;;;1.50;99.90;;;;;;5052983;28;19962;-71
2022/12/06 03:37:11;;;;;;;;;;;1.40;99.90;;;;;;5054819;28;19909;-70
2022/12/06 03:39:42;;;;;;;;;;;1.40;99.90;;;;;;5056958;28;19960;-71
2022/12/06 03:42:08;;;;;;;;;;;1.40;99.90;;;;;;5055323;28;19909;-70
2022/12/06 03:44:34;;;;;;;;;;;1.40;99.90;;;;;;5056907;28;19913;-70
2022/12/06 03:47:03;;;;;;;;;;;1.40;99.90;;;;;;5056588;28;19935;-71
2022/12/06 03:49:35;;;;;;;;;;;1.40;99.90;;;;;;5056546;28;19909;-70
2022/12/06 03:52:01;;;;;;;;;;;1.30;99.90;;;;;;5056728;28;20345;-70
2022/12/06 03:54:27;;;;;;;;;;;1.30;99.90;;;;;;5056999;28;19909;-71
2022/12/06 03:56:52;;;;;;;;;;;1.30;99.90;;;;;;5055058;28;20009;-71
2022/12/06 03:59:18;;;;;;;;;;;1.30;99.90;;;;;;5056357;28;20396;-70
2022/12/06 04:01:43;;;;;;;;;;;1.20;99.90;;;;;;5056263;28;19987;-70
2022/12/06 04:04:09;;;;;;;;;;;1.20;99.90;;;;;;5056217;28;19962;-71
2022/12/06 04:06:35;;;;;;;;;;;1.10;99.90;;;;;;5056481;28;19940;-71
2022/12/06 04:11:45;;;;;;;;;;;1.20;99.90;;;;;;5056658;28;19947;-71
2022/12/06 04:14:10;;;;;;;;;;;1.20;99.90;;;;;;5056029;28;19909;-71
2022/12/06 04:19:20;;;;;;;;;;;1.20;99.90;;;;;;5056280;28;20289;-71
2022/12/06 04:24:30;;;;;;;;;;;1.20;99.90;;;;;;5056132;28;19935;-71
2022/12/06 04:40:40;;;;;;;;;;;1.20;99.90;;;;;;5055824;28;20419;-71
2022/12/06 04:45:50;;;;;;;;;;;1.30;99.90;;;;;;5055566;28;20004;-71
2022/12/06 04:48:15;;;;;;;;;;;1.30;99.90;;;;;;5054795;28;19909;-71
2022/12/06 04:50:45;;;;;;;;;;;1.30;99.90;;;;;;5055593;28;19925;-71
2022/12/06 04:53:11;;;;;;;;;;;1.30;99.90;;;;;;5055634;28;19916;-70
2022/12/06 04:55:36;;;;;;;;;;;1.30;99.90;;;;;;5055332;28;19908;-70
2022/12/06 04:58:02;;;;;;;;;;;1.30;99.90;;;;;;5055547;28;20022;-71
2022/12/06 05:00:27;;;;;;;;;;;1.30;99.90;;;;;;5055276;28;20051;-71
2022/12/06 05:02:53;;;;;;;;;;;1.30;99.90;;;;;;5055655;28;19948;-71
2022/12/06 05:05:18;;;;;;;;;;;1.20;99.90;;;;;;5053751;28;19912;-70
2022/12/06 05:07:44;;;;;;;;;;;1.20;99.90;;;;;;5054909;28;19920;-71
2022/12/06 05:10:09;;;;;;;;;;;1.10;99.90;;;;;;5053670;28;19919;-71
2022/12/06 05:12:35;;;;;;;;;;;1.10;99.90;;;;;;5053435;28;20015;-71
2022/12/06 05:15:01;;;;;;;;;;;1.00;99.90;;;;;;5050849;28;19959;-70
2022/12/06 05:17:26;;;;;;;;;;;1.00;99.90;;;;;;5051569;28;19917;-70
2022/12/06 05:19:52;;;;;;;;;;;1.00;99.90;;;;;;5054206;28;19999;-71
2022/12/06 05:22:20;;;;;;;;;;;1.00;99.90;;;;;;5052710;28;19913;-71
2022/12/06 05:24:45;;;;;;;;;;;1.00;99.90;;;;;;5052536;28;20295;-70
2022/12/06 05:27:14;;;;;;;;;;;1.00;99.90;;;;;;5053033;28;20008;-71
2022/12/06 05:29:41;;;;;;;;;;;1.00;99.90;;;;;;5053839;28;19913;-71
2022/12/06 05:32:06;;;;;;;;;;;1.00;99.90;;;;;;5054882;28;20361;-71
2022/12/06 05:34:32;;;;;;;;;;;1.00;99.90;;;;;;5054527;28;19983;-71
2022/12/06 05:36:57;;;;;;;;;;;1.00;99.90;;;;;;5054557;28;19913;-70
2022/12/06 05:39:23;;;;;;;;;;;1.00;99.90;;;;;;5055047;28;20024;-70
2022/12/06 05:41:48;;;;;;;;;;;0.90;99.90;;;;;;5054324;28;19913;-70
2022/12/06 05:44:14;;;;;;;;;;;0.90;99.90;;;;;;5054728;28;19920;-71
2022/12/06 05:46:39;;;;;;;;;;;0.90;99.90;;;;;;5054414;28;19967;-71
2022/12/06 05:49:05;;;;;;;;;;;0.90;99.90;;;;;;5054278;28;19913;-71
2022/12/06 05:51:31;;;;;;;;;;;0.90;99.90;;;;;;5052974;28;19912;-71
2022/12/06 05:53:56;;;;;;;;;;;1.00;99.90;;;;;;5054478;28;19919;-71
2022/12/06 05:56:22;;;;;;;;;;;1.00;99.90;;;;;;5054258;28;19917;-71
2022/12/06 05:58:47;;;;;;;;;;;1.00;99.90;;;;;;5054039;28;19917;-71
2022/12/06 06:01:13;;;;;;;;;;;1.00;99.90;;;;;;5053094;28;19941;-71
2022/12/06 06:03:38;;;;;;;;;;;1.00;99.90;;;;;;5055572;28;19913;-71
2022/12/06 06:06:04;;;;;;;;;;;1.00;99.90;;;;;;5055354;28;19985;-71
2022/12/06 06:08:30;;;;;;;;;;;1.00;99.90;;;;;;5054166;28;19913;-71
2022/12/06 06:10:56;;;;;;;;;;;1.00;99.90;;;;;;5053940;28;19909;-71
2022/12/06 06:13:21;;;;;;;;;;;1.00;99.90;;;;;;5054176;28;19916;-70
2022/12/06 06:15:48;;;;;;;;;;;1.00;99.90;;;;;;5053924;28;19920;-71
2022/12/06 06:18:14;;;;;;;;;;;1.00;99.90;;;;;;5053853;28;19913;-71
2022/12/06 06:20:39;;;;;;;;;;;0.90;99.90;;;;;;5053844;28;19909;-71
2022/12/06 06:23:05;;;;;;;;;;;0.90;99.90;;;;;;5053726;28;20455;-71
2022/12/06 06:25:30;;;;;;;;;;;0.90;99.90;;;;;;5054029;28;19920;-71
2022/12/06 06:27:56;;;;;;;;;;;0.90;99.90;;;;;;5054134;28;20008;-71
2022/12/06 06:30:21;;;;;;;;;;;0.90;99.90;;;;;;5054318;28;19917;-71
2022/12/06 06:32:47;;;;;;;;;;;0.90;99.90;;;;;;5053592;28;19963;-71
2022/12/06 06:35:13;;;;;;;;;;;0.90;99.90;;;;;;5053643;28;19909;-71
2022/12/06 06:37:38;;;;;;;;;;;1.00;99.90;;;;;;5053834;28;19917;-71
2022/12/06 06:40:04;;;;;;;;;;;1.00;99.90;;;;;;5053580;28;19909;-71
2022/12/06 06:42:30;;;;;;;;;;;1.00;99.90;;;;;;5053604;28;19913;-71
2022/12/06 06:44:55;;;;;;;;;;;1.00;99.90;;;;;;5054052;28;20379;-71
2022/12/06 06:47:21;;;;;;;;;;;1.00;99.90;;;;;;5053533;28;20350;-71
2022/12/06 06:49:47;;;;;;;;;;;1.00;99.90;;;;;;5053784;28;19995;-71
2022/12/06 06:52:13;;;;;;;;;;;1.00;99.90;;;;;;5053499;28;20006;-71
2022/12/06 06:54:38;;;;;;;;;;;1.00;99.90;;;;;;5053882;28;19920;-71
2022/12/06 06:57:04;;;;;;;;;;;1.00;99.90;;;;;;5053343;28;19913;-71
2022/12/06 06:59:29;;;;;;;;;;;1.00;99.90;;;;;;5053707;28;20003;-71
2022/12/06 07:01:55;;;;;;;;;;;1.00;99.90;;;;;;5053442;28;20026;-71
2022/12/06 07:04:21;;;;;;;;;;;1.00;99.90;;;;;;5053346;28;19959;-71
2022/12/06 07:06:46;;;;;;;;;;;1.10;99.90;;;;;;5052412;28;19940;-71
2022/12/06 07:09:12;;;;;;;;;;;1.00;99.90;;;;;;5053556;28;20288;-71
2022/12/06 07:11:38;;;;;;;;;;;1.10;99.90;;;;;;5054278;28;19912;-71
2022/12/06 07:14:03;;;;;;;;;;;1.10;99.90;;;;;;5057462;28;19942;-71
2022/12/06 07:16:29;;;;;;;;;;;1.10;99.90;;;;;;5057435;28;20007;-72
2022/12/06 07:18:54;;;;;;;;;;;1.10;99.90;;;;;;5057062;28;19913;-71
2022/12/06 07:21:23;;;;;;;;;;;1.10;99.90;;;;;;5057011;28;20270;-71
2022/12/06 07:23:49;;;;;;;;;;;1.10;99.90;;;;;;5056935;28;19927;-71
2022/12/06 07:26:16;;;;;;;;;;;1.10;99.90;;;;;;5055755;28;19909;-71
2022/12/06 07:28:42;;;;;;;;;;;1.00;99.90;;;;;;5056910;28;20303;-71
2022/12/06 07:31:09;;;;;;;;;;;1.00;99.90;;;;;;5055587;28;19908;-71
2022/12/06 07:33:35;;;;;;;;;;;1.00;99.90;;;;;;5056821;28;20364;-71
2022/12/06 07:36:00;;;;;;;;;;;1.00;99.90;;;;;;5056828;28;19913;-71
2022/12/06 07:38:26;;;;;;;;;;;1.00;99.90;;;;;;5063825;28;19916;-72
2022/12/06 07:40:51;;;;;;;;;;;1.00;99.90;;;;;;5064213;28;19912;-73
2022/12/06 07:46:01;;;;;;;;;;;1.00;99.90;;;;;;5065079;28;19942;-73
2022/12/06 07:48:27;;;;;;;;;;;1.00;99.90;;;;;;5064369;28;20017;-73
2022/12/06 07:50:52;;;;;;;;;;;1.00;99.90;;;;;;5065673;28;19913;-73
2022/12/06 07:53:18;;;;;;;;;;;1.00;99.90;;;;;;5065353;28;20321;-73
2022/12/06 07:55:47;;;;;;;;;;;1.00;99.90;;;;;;5065024;28;20361;-73
2022/12/06 07:58:12;;;;;;;;;;;1.00;99.90;;;;;;5064998;28;19943;-73
2022/12/06 08:00:40;;;;;;;;;;;0.90;99.90;;;;;;5066572;28;20399;-73
2022/12/06 08:03:06;;;;;;;;;;;0.90;99.90;;;;;;5066707;28;20046;-73
2022/12/06 08:05:32;;;;;;;;;;;1.00;99.90;;;;;;5064892;28;20443;-73
2022/12/06 08:07:57;;;;;;;;;;;1.00;99.90;;;;;;5065263;28;20007;-73
2022/12/06 08:10:23;;;;;;;;;;;1.00;99.90;;;;;;5064265;28;19917;-73
2022/12/06 08:12:48;;;;;;;;;;;1.00;99.90;;;;;;5064249;28;19912;-73
2022/12/06 08:15:14;;;;;;;;;;;1.00;99.90;;;;;;5064540;28;19963;-73
2022/12/06 08:17:39;;;;;;;;;;;1.00;99.90;;;;;;5064296;28;19917;-73
2022/12/06 08:20:09;;;;;;;;;;;1.00;99.90;;;;;;5066536;28;19931;-73
2022/12/06 08:22:34;;;;;;;;;;;1.00;99.90;;;;;;5065867;28;19915;-72
2022/12/06 08:25:00;;;;;;;;;;;1.10;99.90;;;;;;5063005;28;19917;-72
2022/12/06 08:27:25;;;;;;;;;;;1.10;99.90;;;;;;5069043;28;19921;-72
2022/12/06 08:29:51;;;;;;;;;;;1.10;99.90;;;;;;5069230;28;19980;-73
2022/12/06 08:32:18;;;;;;;;;;;1.20;99.90;;;;;;5069066;28;19916;-73
2022/12/06 08:34:44;;;;;;;;;;;1.20;99.90;;;;;;5068628;28;19909;-73
2022/12/06 08:37:10;;;;;;;;;;;1.20;99.90;;;;;;5053284;28;19913;-73
2022/12/06 08:39:37;;;;;;;;;;;1.20;99.90;;;;;;5071857;28;19984;-73
2022/12/06 08:42:05;;;;;;;;;;;1.20;99.90;;;;;;5070743;28;19940;-73
2022/12/06 08:44:31;;;;;;;;;;;1.30;99.90;;;;;;5067055;28;20331;-72
2022/12/06 08:46:57;;;;;;;;;;;1.30;99.90;;;;;;5066213;28;19920;-73
2022/12/06 08:49:24;;;;;;;;;;;1.30;99.90;;;;;;5067807;28;19980;-72
2022/12/06 08:51:50;;;;;;;;;;;1.30;99.90;;;;;;5065701;28;20351;-73
2022/12/06 08:54:17;;;;;;;;;;;1.40;99.90;;;;;;5055672;28;19908;-69
2022/12/06 08:56:42;;;;;;;;;;;1.40;99.90;;;;;;5055814;28;20276;-69
2022/12/06 08:59:08;;;;;;;;;;;1.50;99.90;;;;;;5055253;28;19983;-69
2022/12/06 09:01:33;;;;;;;;;;;1.50;99.90;;;;;;5053933;28;20377;-69
2022/12/06 09:04:02;;;;;;;;;;;1.50;99.90;;;;;;5055175;28;19920;-69
2022/12/06 09:06:28;;;;;;;;;;;1.50;99.90;;;;;;5055189;28;19913;-69
2022/12/06 09:08:57;;;;;;;;;;;1.50;99.90;;;;;;5053755;28;20003;-69
2022/12/06 09:11:24;;;;;;;;;;;1.60;99.90;;;;;;5053594;28;19936;-70
2022/12/06 09:13:49;;;;;;;;;;;1.60;99.90;;;;;;5054966;28;20380;-69
2022/12/06 09:16:16;;;;;;;;;;;1.60;99.90;;;;;;5054992;28;19913;-69
2022/12/06 09:18:42;;;;;;;;;;;1.60;99.90;;;;;;5055128;28;19913;-69
2022/12/06 09:21:11;;;;;;;;;;;1.70;99.90;;;;;;5055038;28;19913;-69
2022/12/06 09:23:36;;;;;;;;;;;1.70;99.90;;;;;;5054909;28;19917;-69
2022/12/06 09:26:03;;;;;;;;;;;1.80;99.90;;;;;;5054739;28;20427;-69
2022/12/06 09:28:28;;;;;;;;;;;1.90;99.90;;;;;;5053489;28;19913;-69
2022/12/06 09:30:55;;;;;;;;;;;2.10;99.90;;;;;;5054857;28;20312;-69
2022/12/06 09:33:21;;;;;;;;;;;2.20;99.90;;;;;;5054896;28;20281;-69
2022/12/06 09:35:48;;;;;;;;;;;2.30;99.90;;;;;;5054609;28;19920;-69
2022/12/06 09:38:14;;;;;;;;;;;2.30;99.90;;;;;;5054924;28;19913;-70
2022/12/06 09:40:59;;;;;;;;;;;2.50;99.90;;;;;;5054365;28;19920;-69
2022/12/06 09:43:45;;;;;;;;;;;2.50;99.90;;;;;;5054384;28;20002;-69
2022/12/06 09:46:10;;;;;;;;;;;2.50;99.90;;;;;;5054644;28;20289;-69
2022/12/06 09:49:05;;;;;;;;;;;2.60;99.90;;;;;;5054322;28;19909;-69
2022/12/06 09:51:39;;;;;;;;;;;2.70;99.90;;;;;;5000947;28;19960;-70
2022/12/06 09:54:13;;;;;;;;;;;2.80;99.90;;;;;;5054518;28;20371;-70
2022/12/06 09:56:42;;;;;;;;;;;2.80;99.90;;;;;;5054136;28;19909;-69
2022/12/06 09:59:26;;;;;;;;;;;2.80;99.90;;;;;;5054333;28;19919;-70
2022/12/06 10:01:52;;;;;;;;;;;2.80;99.90;;;;;;5054304;28;19909;-69
2022/12/06 10:04:29;;;;;;;;;;;2.80;99.90;;;;;;5054396;28;20261;-69
2022/12/06 10:07:13;;;;;;;;;;;2.80;99.90;;;;;;5054034;28;19909;-69
2022/12/06 10:09:39;;;;;;;;;;;2.80;99.90;;;;;;5054203;28;19909;-69
2022/12/06 10:12:28;;;;;;;;;;;2.90;99.90;;;;;;5053869;28;19909;-69
2022/12/06 10:15:02;;;;;;;;;;;2.80;99.90;;;;;;5024794;28;19935;-70
2022/12/06 10:17:41;;;;;;;;;;;2.90;99.90;;;;;;5052462;28;19917;-69
2022/12/06 10:20:13;;;;;;;;;;;2.90;99.90;;;;;;5054121;28;19909;-69
2022/12/06 10:22:48;;;;;;;;;;;3.00;99.90;;;;;;5053837;28;20281;-71
2022/12/06 10:25:14;;;;;;;;;;;3.10;99.90;;;;;;5054298;28;19955;-69
2022/12/06 10:27:57;;;;;;;;;;;3.10;99.90;;;;;;5053701;28;19916;-69
2022/12/06 10:30:23;;;;;;;;;;;3.20;99.90;;;;;;5054251;28;19908;-69
2022/12/06 10:32:53;;;;;;;;;;;3.20;99.90;;;;;;5053674;28;19919;-69
2022/12/06 10:35:37;;;;;;;;;;;3.30;99.90;;;;;;5053856;28;19983;-69
2022/12/06 10:38:12;;;;;;;;;;;3.40;99.90;;;;;;5053495;28;19913;-70
2022/12/06 10:41:00;;;;;;;;;;;3.50;99.90;;;;;;5054163;28;19962;-70
2022/12/06 10:43:55;;;;;;;;;;;3.60;99.90;;;;;;5053507;28;19974;-69
2022/12/06 10:49:26;;;;;;;;;;;3.70;99.90;;;;;;5060489;28;19916;-69
2022/12/06 10:51:58;;;;;;;;;;;3.80;99.90;;;;;;5058755;28;19931;-70
2022/12/06 10:54:31;;;;;;;;;;;3.80;99.90;;;;;;5060375;28;19909;-69
2022/12/06 10:56:59;;;;;;;;;;;3.80;99.90;;;;;;5058774;28;19909;-70
2022/12/06 10:59:36;;;;;;;;;;;3.80;99.90;;;;;;5060477;28;19913;-70
2022/12/06 11:02:14;;;;;;;;;;;3.90;99.90;;;;;;5059922;28;20309;-70
2022/12/06 11:04:40;;;;;;;;;;;3.90;99.90;;;;;;5058732;28;20340;-69
2022/12/06 11:07:25;;;;;;;;;;;3.90;99.90;;;;;;5060366;28;20284;-69
2022/12/06 11:09:52;;;;;;;;;;;3.90;99.90;;;;;;5059962;28;19946;-70
2022/12/06 11:12:17;;;;;;;;;;;4.00;99.90;;;;;;5059931;28;19909;-69
2022/12/06 11:14:45;;;;;;;;;;;4.00;99.90;;;;;;5059855;28;19909;-70
2022/12/06 11:17:14;;;;;;;;;;;4.10;99.90;;;;;;5059800;28;20272;-70
2022/12/06 11:19:51;;;;;;;;;;;4.10;99.90;;;;;;5059856;28;19909;-70
2022/12/06 11:22:17;;;;;;;;;;;4.10;99.90;;;;;;5060116;28;19908;-70
2022/12/06 11:24:55;;;;;;;;;;;4.10;99.90;;;;;;5060536;28;20387;-70
2022/12/06 11:27:25;;;;;;;;;;;4.10;99.90;;;;;;5060365;28;20357;-70
2022/12/06 11:29:52;;;;;;;;;;;4.10;99.90;;;;;;5058518;28;19909;-70
2022/12/06 11:32:18;;;;;;;;;;;4.20;99.90;;;;;;5059689;28;19913;-69
2022/12/06 11:34:49;;;;;;;;;;;4.20;99.90;;;;;;5060033;28;19998;-70
2022/12/06 11:37:16;;;;;;;;;;;4.20;99.90;;;;;;5059888;28;19978;-70
2022/12/06 11:39:42;;;;;;;;;;;4.30;99.90;;;;;;5059757;28;19915;-70
2022/12/06 11:42:10;;;;;;;;;;;4.30;99.90;;;;;;5059605;28;19917;-70
2022/12/06 11:44:39;;;;;;;;;;;4.30;99.90;;;;;;5058354;28;19987;-69
2022/12/06 11:47:05;;;;;;;;;;;4.40;99.90;;;;;;5059941;28;20257;-69
2022/12/06 11:49:37;;;;;;;;;;;4.40;99.90;;;;;;5058380;28;20015;-70
2022/12/06 11:52:08;;;;;;;;;;;4.50;99.90;;;;;;5059698;28;19912;-69
2022/12/06 11:54:38;;;;;;;;;;;4.40;99.90;;;;;;5059998;28;19940;-70
2022/12/06 11:57:13;;;;;;;;;;;4.30;99.90;;;;;;5059561;28;19909;-70
2022/12/06 11:59:38;;;;;;;;;;;4.20;99.90;;;;;;5056746;28;19913;-70
2022/12/06 12:02:04;;;;;;;;;;;4.10;99.90;;;;;;5056271;28;20335;-70
2022/12/06 12:04:33;;;;;;;;;;;4.10;99.90;;;;;;5055017;28;19913;-70
2022/12/06 12:07:18;;;;;;;;;;;4.10;99.90;;;;;;5056588;28;19912;-70
2022/12/06 12:09:49;;;;;;;;;;;4.20;99.90;;;;;;5055740;28;19909;-70
2022/12/06 12:12:16;;;;;;;;;;;4.10;99.90;;;;;;5056110;28;19916;-70
2022/12/06 12:14:43;;;;;;;;;;;4.20;99.90;;;;;;5056063;28;20046;-70
2022/12/06 12:17:19;;;;;;;;;;;4.20;99.90;;;;;;5056077;28;19909;-69
2022/12/06 12:19:50;;;;;;;;;;;4.30;99.90;;;;;;5056291;28;20034;-70
2022/12/06 12:22:22;;;;;;;;;;;4.20;99.90;;;;;;5055903;28;19944;-70
2022/12/06 12:24:49;;;;;;;;;;;4.30;99.90;;;;;;5055796;28;19917;-70
2022/12/06 12:27:31;;;;;;;;;;;4.30;99.90;;;;;;5055804;28;19916;-70
2022/12/06 12:30:16;;;;;;;;;;;4.20;99.90;;;;;;5056392;28;20309;-70
2022/12/06 12:32:42;;;;;;;;;;;4.20;99.90;;;;;;5056045;28;19966;-70
2022/12/06 12:35:20;;;;;;;;;;;4.30;99.90;;;;;;5055730;28;19913;-70
2022/12/06 12:37:51;;;;;;;;;;;4.30;99.90;;;;;;5055907;28;20268;-70
2022/12/06 12:40:35;;;;;;;;;;;4.30;99.90;;;;;;5055831;28;20361;-70
2022/12/06 12:43:26;;;;;;;;;;;4.20;99.90;;;;;;5055493;28;19909;-70
2022/12/06 12:46:01;;;;;;;;;;;4.20;99.90;;;;;;5053600;28;20312;-70
2022/12/06 12:48:27;;;;;;;;;;;4.30;99.90;;;;;;5055716;28;19909;-69
2022/12/06 12:50:53;;;;;;;;;;;4.30;99.90;;;;;;5055317;28;19920;-69
2022/12/06 12:53:35;;;;;;;;;;;4.20;99.90;;;;;;5054073;28;19913;-70
2022/12/06 12:56:07;;;;;;;;;;;4.20;99.90;;;;;;5055830;28;19934;-70
2022/12/06 12:58:32;;;;;;;;;;;4.20;99.90;;;;;;5055224;28;20434;-70
2022/12/06 13:01:01;;;;;;;;;;;4.20;99.90;;;;;;5055186;28;19917;-70
2022/12/06 13:03:27;;;;;;;;;;;4.20;99.90;;;;;;5055490;28;20471;-70
2022/12/06 13:05:54;;;;;;;;;;;4.20;99.90;;;;;;5055482;28;19962;-70
2022/12/06 13:08:25;;;;;;;;;;;4.30;99.90;;;;;;5055397;28;19913;-70
2022/12/06 13:10:53;;;;;;;;;;;4.30;99.90;;;;;;5054782;28;19916;-69
2022/12/06 13:13:29;;;;;;;;;;;4.40;99.90;;;;;;5055239;28;20408;-69
2022/12/06 13:15:56;;;;;;;;;;;4.40;99.90;;;;;;5055530;28;20277;-69
2022/12/06 13:18:41;;;;;;;;;;;4.40;99.90;;;;;;5054842;28;20376;-69
2022/12/06 13:21:30;;;;;;;;;;;4.50;99.90;;;;;;5055010;28;19909;-70
2022/12/06 13:24:01;;;;;;;;;;;4.50;99.90;;;;;;5049026;28;19921;-70
2022/12/06 13:26:32;;;;;;;;;;;4.50;99.90;;;;;;5055070;28;20329;-69
2022/12/06 13:29:00;;;;;;;;;;;4.50;99.90;;;;;;5055013;28;20361;-69
2022/12/06 13:31:32;;;;;;;;;;;4.50;99.90;;;;;;5054623;28;19912;-69
2022/12/06 13:34:12;;;;;;;;;;;4.50;99.90;;;;;;5054634;28;20389;-69
2022/12/06 13:36:38;;;;;;;;;;;4.40;99.90;;;;;;5065307;23;19945;-84
2022/12/06 13:39:26;;;;;;;;;;;4.40;99.90;;;;;;5055000;28;19948;-84
2022/12/06 13:44:40;;;;;;;;;;;4.30;99.90;;;;;;5075079;28;20417;-84
2022/12/06 13:47:24;;;;;;;;;;;4.20;99.90;;;;;;5056653;28;19908;-83
2022/12/06 13:49:50;;;;;;;;;;;4.20;99.90;;;;;;5057254;28;20006;-85
2022/12/06 13:52:35;;;;;;;;;;;4.10;99.90;;;;;;5056480;28;19940;-86
2022/12/06 13:55:19;;;;;;;;;;;4.00;99.90;;;;;;5049864;28;19909;-87
2022/12/06 13:57:57;;;;;;;;;;;4.00;99.90;;;;;;5040188;28;19916;-85
2022/12/06 14:00:44;;;;;;;;;;;3.90;99.90;;;;;;5037471;28;20062;-85
2022/12/06 14:03:16;;;;;;;;;;;3.90;99.90;;;;;;5037118;28;19909;-86
2022/12/06 14:05:57;;;;;;;;;;;3.90;99.90;;;;;;5091385;22;19931;-82
2022/12/06 14:08:28;;;;;;;;;;;3.90;99.90;;;;;;5095047;28;19908;-82
2022/12/06 14:11:03;;;;;;;;;;;3.90;99.90;;;;;;5096454;28;20002;-81
2022/12/06 14:13:29;;;;;;;;;;;3.90;99.90;;;;;;5095877;28;20260;-81
2022/12/06 14:15:54;;;;;;;;;;;3.90;99.90;;;;;;5078303;28;19919;-81
2022/12/06 14:18:24;;;;;;;;;;;4.00;99.90;;;;;;5079542;28;19966;-80
2022/12/06 14:20:51;;;;;;;;;;;3.90;99.90;;;;;;5078749;28;19909;-80
2022/12/06 14:23:25;;;;;;;;;;;3.90;99.90;;;;;;5097561;28;20364;-81
2022/12/06 14:25:50;;;;;;;;;;;3.90;99.90;;;;;;5079043;28;19915;-79
2022/12/06 14:28:17;;;;;;;;;;;3.80;99.90;;;;;;5097716;28;19912;-80
2022/12/06 14:30:44;;;;;;;;;;;3.80;99.90;;;;;;5097496;28;20371;-81
2022/12/06 14:33:18;;;;;;;;;;;3.70;99.90;;;;;;5079389;28;19912;-81
2022/12/06 14:35:48;;;;;;;;;;;3.60;99.90;;;;;;5079531;28;20375;-80
2022/12/06 14:38:16;;;;;;;;;;;3.50;99.90;;;;;;5078544;28;19995;-80
2022/12/06 14:43:28;;;;;;;;;;;3.40;99.90;;;;;;5097571;28;19923;-80
2022/12/06 14:45:54;;;;;;;;;;;3.40;99.90;;;;;;5079120;28;19912;-80
2022/12/06 14:48:20;;;;;;;;;;;3.30;99.90;;;;;;5096845;28;19931;-80
2022/12/06 14:50:59;;;;;;;;;;;3.30;99.90;;;;;;5079060;28;19908;-81
2022/12/06 14:53:28;;;;;;;;;;;3.30;99.90;;;;;;5078306;28;20417;-80
2022/12/06 14:55:57;;;;;;;;;;;3.30;99.90;;;;;;5097104;28;19908;-81
2022/12/06 14:58:31;;;;;;;;;;;3.30;99.90;;;;;;5078398;28;19951;-82
2022/12/06 15:01:13;;;;;;;;;;;3.30;99.90;;;;;;5078641;28;19908;-82
2022/12/06 15:03:39;;;;;;;;;;;3.30;99.90;;;;;;5079053;28;19951;-80
2022/12/06 15:06:08;;;;;;;;;;;3.20;99.90;;;;;;5096976;28;19923;-81
2022/12/06 15:08:34;;;;;;;;;;;3.20;99.90;;;;;;5096676;28;19947;-81
2022/12/06 15:11:02;;;;;;;;;;;3.10;99.90;;;;;;5078376;28;19954;-81
2022/12/06 15:13:28;;;;;;;;;;;3.10;99.90;;;;;;5097073;28;20406;-82
2022/12/06 15:16:00;;;;;;;;;;;3.00;99.90;;;;;;5096167;28;21629;-80